sensor_id;sensor_type;location;lat;lon;timestamp;temperature;humidity
20498;DHT22;10407;53.238;10.448;2023-07-20T00:02:25;15.70;99.90
20498;DHT22;10407;53.238;10.448;2023-07-20T00:04:52;15.90;99.90
20498;DHT22;10407;53.238;10.448;2023-07-20T00:07:20;15.90;99.90
20498;DHT22;10407;53.238;10.448;2023-07-20T00:09:47;16.00;99.90
20498;DHT22;10407;53.238;10.448;2023-07-20T00:15:37;15.80;99.90
20498;DHT22;10407;53.238;10.448;2023-07-20T00:18:05;15.90;99.90
20498;DHT22;10407;53.238;10.448;2023-07-20T00:20:33;15.90;99.90
20498;DHT22;10407;53.238;10.448;2023-07-20T00:23:00;15.80;99.90
20498;DHT22;10407;53.238;10.448;2023-07-20T00:25:28;15.80;99.90
20498;DHT22;10407;53.238;10.448;2023-07-20T00:27:56;15.60;99.90
20498;DHT22;10407;53.238;10.448;2023-07-20T00:30:23;15.80;99.90
20498;DHT22;10407;53.238;10.448;2023-07-20T00:32:51;15.60;99.90
20498;DHT22;10407;53.238;10.448;2023-07-20T00:35:18;15.70;99.90
20498;DHT22;10407;53.238;10.448;2023-07-20T00:37:46;15.80;99.90
20498;DHT22;10407;53.238;10.448;2023-07-20T00:40:14;15.80;99.90
20498;DHT22;10407;53.238;10.448;2023-07-20T00:42:41;15.90;99.90
20498;DHT22;10407;53.238;10.448;2023-07-20T00:45:09;15.90;99.90
20498;DHT22;10407;53.238;10.448;2023-07-20T00:47:37;15.90;99.90
20498;DHT22;10407;53.238;10.448;2023-07-20T00:50:05;15.80;99.90
20498;DHT22;10407;53.238;10.448;2023-07-20T00:52:34;15.70;99.90
20498;DHT22;10407;53.238;10.448;2023-07-20T00:55:02;15.80;99.90
20498;DHT22;10407;53.238;10.448;2023-07-20T00:57:30;15.60;99.90
20498;DHT22;10407;53.238;10.448;2023-07-20T00:59:57;15.80;99.90
20498;DHT22;10407;53.238;10.448;2023-07-20T01:02:25;15.90;99.90
20498;DHT22;10407;53.238;10.448;2023-07-20T01:04:53;15.90;99.90
20498;DHT22;10407;53.238;10.448;2023-07-20T01:07:31;15.70;99.90
20498;DHT22;10407;53.238;10.448;2023-07-20T01:12:56;15.40;99.90
20498;DHT22;10407;53.238;10.448;2023-07-20T01:15:04;15.50;99.90
20498;DHT22;10407;53.238;10.448;2023-07-20T01:17:34;15.50;99.90
20498;DHT22;10407;53.238;10.448;2023-07-20T01:20:02;15.20;99.90
20498;DHT22;10407;53.238;10.448;2023-07-20T01:26:27;15.50;99.90
20498;DHT22;10407;53.238;10.448;2023-07-20T01:28:16;15.30;99.90
20498;DHT22;10407;53.238;10.448;2023-07-20T01:33:44;15.60;99.90
20498;DHT22;10407;53.238;10.448;2023-07-20T01:36:14;15.60;99.90
20498;DHT22;10407;53.238;10.448;2023-07-20T01:38:43;15.80;99.90
20498;DHT22;10407;53.238;10.448;2023-07-20T01:41:11;16.00;99.90
20498;DHT22;10407;53.238;10.448;2023-07-20T01:43:39;16.00;99.90
20498;DHT22;10407;53.238;10.448;2023-07-20T01:46:07;16.10;99.90
20498;DHT22;10407;53.238;10.448;2023-07-20T01:48:34;16.10;99.90
20498;DHT22;10407;53.238;10.448;2023-07-20T01:51:02;16.10;99.90
20498;DHT22;10407;53.238;10.448;2023-07-20T01:53:29;16.00;99.90
20498;DHT22;10407;53.238;10.448;2023-07-20T01:55:57;16.00;99.90
20498;DHT22;10407;53.238;10.448;2023-07-20T01:58:25;15.90;99.90
20498;DHT22;10407;53.238;10.448;2023-07-20T02:00:52;15.80;99.90
20498;DHT22;10407;53.238;10.448;2023-07-20T02:06:42;15.80;99.90
20498;DHT22;10407;53.238;10.448;2023-07-20T02:09:10;16.00;99.90
20498;DHT22;10407;53.238;10.448;2023-07-20T02:11:37;15.90;99.90
20498;DHT22;10407;53.238;10.448;2023-07-20T02:14:05;15.80;99.90
20498;DHT22;10407;53.238;10.448;2023-07-20T02:16:32;15.90;99.90
20498;DHT22;10407;53.238;10.448;2023-07-20T02:19:00;16.00;99.90
20498;DHT22;10407;53.238;10.448;2023-07-20T02:21:27;16.00;99.90
20498;DHT22;10407;53.238;10.448;2023-07-20T02:23:55;15.90;99.90
20498;DHT22;10407;53.238;10.448;2023-07-20T02:26:22;16.00;99.90
20498;DHT22;10407;53.238;10.448;2023-07-20T02:28:50;16.10;99.90
20498;DHT22;10407;53.238;10.448;2023-07-20T02:31:18;16.10;99.90
20498;DHT22;10407;53.238;10.448;2023-07-20T02:37:07;16.30;99.90
20498;DHT22;10407;53.238;10.448;2023-07-20T02:39:35;16.30;99.90
20498;DHT22;10407;53.238;10.448;2023-07-20T02:42:02;16.20;99.90
20498;DHT22;10407;53.238;10.448;2023-07-20T02:44:30;16.00;99.90
20498;DHT22;10407;53.238;10.448;2023-07-20T02:46:58;16.20;99.90
20498;DHT22;10407;53.238;10.448;2023-07-20T02:49:25;16.30;99.90
20498;DHT22;10407;53.238;10.448;2023-07-20T02:51:53;16.20;99.90
20498;DHT22;10407;53.238;10.448;2023-07-20T02:54:21;16.40;99.90
20498;DHT22;10407;53.238;10.448;2023-07-20T02:56:49;16.50;99.90
20498;DHT22;10407;53.238;10.448;2023-07-20T02:59:16;16.50;99.90
20498;DHT22;10407;53.238;10.448;2023-07-20T03:01:45;16.10;99.90
20498;DHT22;10407;53.238;10.448;2023-07-20T03:04:12;16.20;99.90
20498;DHT22;10407;53.238;10.448;2023-07-20T03:06:40;16.30;99.90
20498;DHT22;10407;53.238;10.448;2023-07-20T03:09:07;16.20;99.90
20498;DHT22;10407;53.238;10.448;2023-07-20T03:11:35;16.30;99.90
20498;DHT22;10407;53.238;10.448;2023-07-20T03:14:03;16.30;99.90
20498;DHT22;10407;53.238;10.448;2023-07-20T03:16:31;16.40;99.90
20498;DHT22;10407;53.238;10.448;2023-07-20T03:19:00;16.50;99.90
20498;DHT22;10407;53.238;10.448;2023-07-20T03:21:28;16.50;99.90
20498;DHT22;10407;53.238;10.448;2023-07-20T03:23:55;16.50;99.90
20498;DHT22;10407;53.238;10.448;2023-07-20T03:26:23;16.50;99.90
20498;DHT22;10407;53.238;10.448;2023-07-20T03:28:51;16.50;99.90
20498;DHT22;10407;53.238;10.448;2023-07-20T03:31:18;16.50;99.90
20498;DHT22;10407;53.238;10.448;2023-07-20T03:33:46;16.60;99.90
20498;DHT22;10407;53.238;10.448;2023-07-20T03:36:14;16.60;99.90
20498;DHT22;10407;53.238;10.448;2023-07-20T03:38:41;16.70;99.90
20498;DHT22;10407;53.238;10.448;2023-07-20T03:41:09;16.70;99.90
20498;DHT22;10407;53.238;10.448;2023-07-20T03:43:38;16.70;99.90
20498;DHT22;10407;53.238;10.448;2023-07-20T03:46:05;16.60;99.90
20498;DHT22;10407;53.238;10.448;2023-07-20T03:48:33;16.60;99.90
20498;DHT22;10407;53.238;10.448;2023-07-20T03:51:01;16.70;99.90
20498;DHT22;10407;53.238;10.448;2023-07-20T03:53:29;16.70;99.90
20498;DHT22;10407;53.238;10.448;2023-07-20T03:55:56;16.70;99.90
20498;DHT22;10407;53.238;10.448;2023-07-20T03:58:24;16.50;99.90
20498;DHT22;10407;53.238;10.448;2023-07-20T04:00:52;16.30;99.90
20498;DHT22;10407;53.238;10.448;2023-07-20T04:03:20;16.40;99.90
20498;DHT22;10407;53.238;10.448;2023-07-20T04:05:49;16.40;99.90
20498;DHT22;10407;53.238;10.448;2023-07-20T04:08:17;16.30;99.90
20498;DHT22;10407;53.238;10.448;2023-07-20T04:10:45;16.30;99.90
20498;DHT22;10407;53.238;10.448;2023-07-20T04:13:13;16.30;99.90
20498;DHT22;10407;53.238;10.448;2023-07-20T04:15:41;16.30;99.90
20498;DHT22;10407;53.238;10.448;2023-07-20T04:18:09;16.10;99.90
20498;DHT22;10407;53.238;10.448;2023-07-20T04:20:36;16.20;99.90
20498;DHT22;10407;53.238;10.448;2023-07-20T04:23:04;16.30;99.90
20498;DHT22;10407;53.238;10.448;2023-07-20T04:25:31;16.20;99.90
20498;DHT22;10407;53.238;10.448;2023-07-20T04:28:01;16.40;99.90
20498;DHT22;10407;53.238;10.448;2023-07-20T04:30:29;16.50;99.90
20498;DHT22;10407;53.238;10.448;2023-07-20T04:32:56;16.40;99.90
20498;DHT22;10407;53.238;10.448;2023-07-20T04:35:52;16.40;99.90
20498;DHT22;10407;53.238;10.448;2023-07-20T04:38:20;16.50;99.90
20498;DHT22;10407;53.238;10.448;2023-07-20T04:40:49;16.50;99.90
20498;DHT22;10407;53.238;10.448;2023-07-20T04:43:17;16.60;99.90
20498;DHT22;10407;53.238;10.448;2023-07-20T04:45:46;16.60;99.90
20498;DHT22;10407;53.238;10.448;2023-07-20T04:48:14;16.70;99.90
20498;DHT22;10407;53.238;10.448;2023-07-20T04:50:43;16.80;99.90
20498;DHT22;10407;53.238;10.448;2023-07-20T04:53:12;16.90;99.90
20498;DHT22;10407;53.238;10.448;2023-07-20T04:55:40;17.00;99.90
20498;DHT22;10407;53.238;10.448;2023-07-20T04:58:08;17.00;99.90
20498;DHT22;10407;53.238;10.448;2023-07-20T05:00:37;17.00;99.90
20498;DHT22;10407;53.238;10.448;2023-07-20T05:03:05;17.00;99.90
20498;DHT22;10407;53.238;10.448;2023-07-20T05:05:32;16.70;99.90
20498;DHT22;10407;53.238;10.448;2023-07-20T05:08:00;16.70;99.90
20498;DHT22;10407;53.238;10.448;2023-07-20T05:10:28;16.80;99.90
20498;DHT22;10407;53.238;10.448;2023-07-20T05:12:55;17.00;99.90
20498;DHT22;10407;53.238;10.448;2023-07-20T05:15:23;17.00;99.90
20498;DHT22;10407;53.238;10.448;2023-07-20T05:17:51;17.00;99.90
20498;DHT22;10407;53.238;10.448;2023-07-20T05:20:19;16.90;99.90
20498;DHT22;10407;53.238;10.448;2023-07-20T05:22:47;17.10;99.90
20498;DHT22;10407;53.238;10.448;2023-07-20T05:25:14;17.10;99.90
20498;DHT22;10407;53.238;10.448;2023-07-20T05:27:44;17.10;99.90
20498;DHT22;10407;53.238;10.448;2023-07-20T05:30:13;17.30;99.90
20498;DHT22;10407;53.238;10.448;2023-07-20T05:32:40;17.70;99.90
20498;DHT22;10407;53.238;10.448;2023-07-20T05:35:08;18.10;99.90
20498;DHT22;10407;53.238;10.448;2023-07-20T05:37:38;18.40;99.90
20498;DHT22;10407;53.238;10.448;2023-07-20T05:40:06;18.20;99.90
20498;DHT22;10407;53.238;10.448;2023-07-20T05:42:35;17.90;99.90
20498;DHT22;10407;53.238;10.448;2023-07-20T05:45:02;17.90;99.90
20498;DHT22;10407;53.238;10.448;2023-07-20T05:47:30;17.70;99.90
20498;DHT22;10407;53.238;10.448;2023-07-20T05:49:58;17.60;99.90
20498;DHT22;10407;53.238;10.448;2023-07-20T05:52:26;17.60;99.90
20498;DHT22;10407;53.238;10.448;2023-07-20T05:54:53;17.60;99.90
20498;DHT22;10407;53.238;10.448;2023-07-20T05:57:21;17.60;99.90
20498;DHT22;10407;53.238;10.448;2023-07-20T05:59:49;17.70;99.90
20498;DHT22;10407;53.238;10.448;2023-07-20T06:02:16;17.70;99.90
20498;DHT22;10407;53.238;10.448;2023-07-20T06:04:44;17.80;99.90
20498;DHT22;10407;53.238;10.448;2023-07-20T06:07:12;18.10;99.90
20498;DHT22;10407;53.238;10.448;2023-07-20T06:09:40;18.20;99.90
20498;DHT22;10407;53.238;10.448;2023-07-20T06:12:08;18.20;99.90
20498;DHT22;10407;53.238;10.448;2023-07-20T06:14:36;18.10;99.90
20498;DHT22;10407;53.238;10.448;2023-07-20T06:17:05;18.10;99.90
20498;DHT22;10407;53.238;10.448;2023-07-20T06:19:32;18.30;99.90
20498;DHT22;10407;53.238;10.448;2023-07-20T06:22:00;18.40;99.90
20498;DHT22;10407;53.238;10.448;2023-07-20T06:24:28;18.50;99.90
20498;DHT22;10407;53.238;10.448;2023-07-20T06:26:55;18.40;99.90
20498;DHT22;10407;53.238;10.448;2023-07-20T06:29:23;18.50;99.90
20498;DHT22;10407;53.238;10.448;2023-07-20T06:31:50;18.80;99.90
20498;DHT22;10407;53.238;10.448;2023-07-20T06:34:18;20.10;99.90
20498;DHT22;10407;53.238;10.448;2023-07-20T06:36:46;19.80;99.90
20498;DHT22;10407;53.238;10.448;2023-07-20T06:39:13;19.60;99.90
20498;DHT22;10407;53.238;10.448;2023-07-20T06:41:41;21.80;99.90
20498;DHT22;10407;53.238;10.448;2023-07-20T06:44:08;22.40;98.50
20498;DHT22;10407;53.238;10.448;2023-07-20T06:46:36;22.70;99.70
20498;DHT22;10407;53.238;10.448;2023-07-20T06:49:06;23.00;97.70
20498;DHT22;10407;53.238;10.448;2023-07-20T06:51:34;23.10;94.30
20498;DHT22;10407;53.238;10.448;2023-07-20T06:54:02;22.70;93.90
20498;DHT22;10407;53.238;10.448;2023-07-20T06:56:31;22.30;94.10
20498;DHT22;10407;53.238;10.448;2023-07-20T06:58:58;22.80;93.50
20498;DHT22;10407;53.238;10.448;2023-07-20T07:01:26;24.70;81.40
20498;DHT22;10407;53.238;10.448;2023-07-20T07:03:53;24.70;80.70
20498;DHT22;10407;53.238;10.448;2023-07-20T07:06:21;25.60;77.50
20498;DHT22;10407;53.238;10.448;2023-07-20T07:08:49;25.20;79.80
20498;DHT22;10407;53.238;10.448;2023-07-20T07:11:16;24.60;82.60
20498;DHT22;10407;53.238;10.448;2023-07-20T07:13:44;23.10;91.20
20498;DHT22;10407;53.238;10.448;2023-07-20T07:16:13;22.30;94.10
20498;DHT22;10407;53.238;10.448;2023-07-20T07:18:42;23.00;92.90
20498;DHT22;10407;53.238;10.448;2023-07-20T07:21:10;23.60;91.60
20498;DHT22;10407;53.238;10.448;2023-07-20T07:23:39;24.20;90.20
20498;DHT22;10407;53.238;10.448;2023-07-20T07:26:06;23.30;90.10
20498;DHT22;10407;53.238;10.448;2023-07-20T07:28:34;23.50;90.50
20498;DHT22;10407;53.238;10.448;2023-07-20T07:31:06;23.90;90.50
20498;DHT22;10407;53.238;10.448;2023-07-20T07:33:33;23.20;89.10
20498;DHT22;10407;53.238;10.448;2023-07-20T07:36:01;23.10;88.50
20498;DHT22;10407;53.238;10.448;2023-07-20T07:38:29;23.50;89.30
20498;DHT22;10407;53.238;10.448;2023-07-20T07:40:57;23.10;87.50
20498;DHT22;10407;53.238;10.448;2023-07-20T07:43:25;22.20;90.40
20498;DHT22;10407;53.238;10.448;2023-07-20T07:45:54;22.40;89.10
20498;DHT22;10407;53.238;10.448;2023-07-20T07:48:22;22.90;84.50
20498;DHT22;10407;53.238;10.448;2023-07-20T07:50:51;23.80;83.20
20498;DHT22;10407;53.238;10.448;2023-07-20T07:53:19;23.70;79.90
20498;DHT22;10407;53.238;10.448;2023-07-20T07:55:50;22.90;80.50
20498;DHT22;10407;53.238;10.448;2023-07-20T07:58:18;22.60;82.60
20498;DHT22;10407;53.238;10.448;2023-07-20T08:00:45;23.00;82.40
20498;DHT22;10407;53.238;10.448;2023-07-20T08:03:14;23.90;76.90
20498;DHT22;10407;53.238;10.448;2023-07-20T08:05:42;24.30;74.10
20498;DHT22;10407;53.238;10.448;2023-07-20T08:08:09;23.50;73.80
20498;DHT22;10407;53.238;10.448;2023-07-20T08:10:37;24.00;73.80
20498;DHT22;10407;53.238;10.448;2023-07-20T08:13:04;24.50;71.20
20498;DHT22;10407;53.238;10.448;2023-07-20T08:15:32;24.30;71.50
20498;DHT22;10407;53.238;10.448;2023-07-20T08:17:59;24.30;71.20
20498;DHT22;10407;53.238;10.448;2023-07-20T08:20:27;24.70;65.50
20498;DHT22;10407;53.238;10.448;2023-07-20T08:22:55;25.40;59.60
20498;DHT22;10407;53.238;10.448;2023-07-20T08:25:24;25.80;56.70
20498;DHT22;10407;53.238;10.448;2023-07-20T08:27:52;25.20;53.60
20498;DHT22;10407;53.238;10.448;2023-07-20T08:30:21;25.20;54.30
20498;DHT22;10407;53.238;10.448;2023-07-20T08:32:52;24.20;55.30
20498;DHT22;10407;53.238;10.448;2023-07-20T08:35:19;23.60;56.80
20498;DHT22;10407;53.238;10.448;2023-07-20T08:37:47;24.30;57.90
20498;DHT22;10407;53.238;10.448;2023-07-20T08:40:15;25.10;55.70
20498;DHT22;10407;53.238;10.448;2023-07-20T08:42:43;25.70;54.30
20498;DHT22;10407;53.238;10.448;2023-07-20T08:45:12;26.10;52.70
20498;DHT22;10407;53.238;10.448;2023-07-20T08:47:41;26.40;50.50
20498;DHT22;10407;53.238;10.448;2023-07-20T08:50:11;26.60;49.10
20498;DHT22;10407;53.238;10.448;2023-07-20T08:52:40;26.50;46.20
20498;DHT22;10407;53.238;10.448;2023-07-20T08:55:08;26.50;43.50
20498;DHT22;10407;53.238;10.448;2023-07-20T08:57:36;26.50;42.90
20498;DHT22;10407;53.238;10.448;2023-07-20T09:00:07;25.60;40.90
20498;DHT22;10407;53.238;10.448;2023-07-20T09:02:40;24.60;41.80
20498;DHT22;10407;53.238;10.448;2023-07-20T09:05:09;24.10;42.50
20498;DHT22;10407;53.238;10.448;2023-07-20T09:07:37;23.60;41.90
20498;DHT22;10407;53.238;10.448;2023-07-20T09:10:05;23.20;44.50
20498;DHT22;10407;53.238;10.448;2023-07-20T09:12:42;23.00;47.50
20498;DHT22;10407;53.238;10.448;2023-07-20T09:15:06;22.80;50.50
20498;DHT22;10407;53.238;10.448;2023-07-20T09:17:35;23.50;53.20
20498;DHT22;10407;53.238;10.448;2023-07-20T09:20:05;24.30;51.40
20498;DHT22;10407;53.238;10.448;2023-07-20T09:22:35;25.00;51.00
20498;DHT22;10407;53.238;10.448;2023-07-20T09:25:13;25.30;46.30
20498;DHT22;10407;53.238;10.448;2023-07-20T09:27:46;25.60;42.00
20498;DHT22;10407;53.238;10.448;2023-07-20T09:30:16;25.60;36.60
20498;DHT22;10407;53.238;10.448;2023-07-20T09:32:48;25.70;34.00
20498;DHT22;10407;53.238;10.448;2023-07-20T09:35:19;25.80;32.10
20498;DHT22;10407;53.238;10.448;2023-07-20T09:38:00;26.20;32.50
20498;DHT22;10407;53.238;10.448;2023-07-20T09:40:29;26.40;31.80
20498;DHT22;10407;53.238;10.448;2023-07-20T09:42:56;26.50;31.00
20498;DHT22;10407;53.238;10.448;2023-07-20T09:45:35;26.50;29.40
20498;DHT22;10407;53.238;10.448;2023-07-20T09:48:04;25.80;29.20
20498;DHT22;10407;53.238;10.448;2023-07-20T09:50:43;26.20;31.50
20498;DHT22;10407;53.238;10.448;2023-07-20T09:53:12;25.20;31.40
20498;DHT22;10407;53.238;10.448;2023-07-20T09:55:41;25.80;30.50
20498;DHT22;10407;53.238;10.448;2023-07-20T09:58:10;25.70;29.90
20498;DHT22;10407;53.238;10.448;2023-07-20T10:00:38;25.70;30.00
20498;DHT22;10407;53.238;10.448;2023-07-20T10:03:06;25.20;30.20
20498;DHT22;10407;53.238;10.448;2023-07-20T10:05:36;24.30;31.50
20498;DHT22;10407;53.238;10.448;2023-07-20T10:08:07;23.50;37.20
20498;DHT22;10407;53.238;10.448;2023-07-20T10:10:35;22.80;44.30
20498;DHT22;10407;53.238;10.448;2023-07-20T10:13:04;22.50;52.30
20498;DHT22;10407;53.238;10.448;2023-07-20T10:15:37;22.40;58.30
20498;DHT22;10407;53.238;10.448;2023-07-20T10:18:09;22.30;65.40
20498;DHT22;10407;53.238;10.448;2023-07-20T10:20:38;22.00;75.40
20498;DHT22;10407;53.238;10.448;2023-07-20T10:23:07;22.20;78.20
20498;DHT22;10407;53.238;10.448;2023-07-20T10:25:36;23.40;74.50
20498;DHT22;10407;53.238;10.448;2023-07-20T10:28:06;24.10;72.30
20498;DHT22;10407;53.238;10.448;2023-07-20T10:30:38;24.40;68.00
20498;DHT22;10407;53.238;10.448;2023-07-20T10:33:06;24.40;69.90
20498;DHT22;10407;53.238;10.448;2023-07-20T10:35:57;24.90;66.60
20498;DHT22;10407;53.238;10.448;2023-07-20T10:38:04;25.10;59.50
20498;DHT22;10407;53.238;10.448;2023-07-20T10:40:39;25.30;58.90
20498;DHT22;10407;53.238;10.448;2023-07-20T10:43:09;25.20;53.00
20498;DHT22;10407;53.238;10.448;2023-07-20T10:45:50;25.20;48.00
20498;DHT22;10407;53.238;10.448;2023-07-20T10:48:23;24.90;44.20
20498;DHT22;10407;53.238;10.448;2023-07-20T10:51:13;25.20;43.30
20498;DHT22;10407;53.238;10.448;2023-07-20T10:53:41;25.00;40.70
20498;DHT22;10407;53.238;10.448;2023-07-20T10:56:13;25.40;41.10
20498;DHT22;10407;53.238;10.448;2023-07-20T10:58:41;25.10;38.00
20498;DHT22;10407;53.238;10.448;2023-07-20T11:01:18;24.80;38.70
20498;DHT22;10407;53.238;10.448;2023-07-20T11:03:43;24.40;39.20
20498;DHT22;10407;53.238;10.448;2023-07-20T11:09:13;23.30;41.00
20498;DHT22;10407;53.238;10.448;2023-07-20T11:11:46;22.00;44.50
20498;DHT22;10407;53.238;10.448;2023-07-20T11:14:24;22.00;49.60
20498;DHT22;10407;53.238;10.448;2023-07-20T11:16:53;21.10;54.90
20498;DHT22;10407;53.238;10.448;2023-07-20T11:19:24;20.80;61.40
20498;DHT22;10407;53.238;10.448;2023-07-20T11:21:53;21.60;61.20
20498;DHT22;10407;53.238;10.448;2023-07-20T11:24:22;21.60;63.20
20498;DHT22;10407;53.238;10.448;2023-07-20T11:26:53;22.70;62.50
20498;DHT22;10407;53.238;10.448;2023-07-20T11:29:23;22.20;59.80
20498;DHT22;10407;53.238;10.448;2023-07-20T11:31:52;23.00;56.90
20498;DHT22;10407;53.238;10.448;2023-07-20T11:34:20;24.20;54.80
20498;DHT22;10407;53.238;10.448;2023-07-20T11:36:50;23.60;51.80
20498;DHT22;10407;53.238;10.448;2023-07-20T11:39:19;23.90;51.20
20498;DHT22;10407;53.238;10.448;2023-07-20T11:41:48;23.80;50.10
20498;DHT22;10407;53.238;10.448;2023-07-20T11:44:21;23.80;50.40
20498;DHT22;10407;53.238;10.448;2023-07-20T11:47:05;23.40;47.40
20498;DHT22;10407;53.238;10.448;2023-07-20T11:49:36;23.50;41.00
20498;DHT22;10407;53.238;10.448;2023-07-20T11:52:11;23.90;40.20
20498;DHT22;10407;53.238;10.448;2023-07-20T11:54:40;24.00;37.50
20498;DHT22;10407;53.238;10.448;2023-07-20T11:57:19;24.10;37.60
20498;DHT22;10407;53.238;10.448;2023-07-20T11:59:55;24.40;38.90
20498;DHT22;10407;53.238;10.448;2023-07-20T12:02:26;24.00;37.70
20498;DHT22;10407;53.238;10.448;2023-07-20T12:04:57;23.80;38.10
20498;DHT22;10407;53.238;10.448;2023-07-20T12:07:27;24.20;37.80
20498;DHT22;10407;53.238;10.448;2023-07-20T12:10:14;24.60;37.60
20498;DHT22;10407;53.238;10.448;2023-07-20T12:12:39;24.50;36.00
20498;DHT22;10407;53.238;10.448;2023-07-20T12:15:24;23.70;36.00
20498;DHT22;10407;53.238;10.448;2023-07-20T12:17:55;23.70;36.00
20498;DHT22;10407;53.238;10.448;2023-07-20T12:20:28;23.70;38.00
20498;DHT22;10407;53.238;10.448;2023-07-20T12:23:01;22.70;39.90
20498;DHT22;10407;53.238;10.448;2023-07-20T12:25:40;22.80;37.90
20498;DHT22;10407;53.238;10.448;2023-07-20T12:28:11;22.90;37.60
20498;DHT22;10407;53.238;10.448;2023-07-20T12:30:40;22.50;37.00
20498;DHT22;10407;53.238;10.448;2023-07-20T12:33:07;23.10;38.20
20498;DHT22;10407;53.238;10.448;2023-07-20T12:35:35;23.50;36.70
20498;DHT22;10407;53.238;10.448;2023-07-20T12:38:02;23.40;33.10
20498;DHT22;10407;53.238;10.448;2023-07-20T12:40:30;23.00;32.00
20498;DHT22;10407;53.238;10.448;2023-07-20T12:42:58;22.60;29.70
20498;DHT22;10407;53.238;10.448;2023-07-20T12:45:26;22.70;34.40
20498;DHT22;10407;53.238;10.448;2023-07-20T12:47:54;22.70;34.90
20498;DHT22;10407;53.238;10.448;2023-07-20T12:50:21;23.00;35.30
20498;DHT22;10407;53.238;10.448;2023-07-20T12:52:49;23.00;36.20
20498;DHT22;10407;53.238;10.448;2023-07-20T12:55:16;23.10;36.60
20498;DHT22;10407;53.238;10.448;2023-07-20T12:57:45;23.10;36.40
20498;DHT22;10407;53.238;10.448;2023-07-20T13:00:14;22.90;37.10
20498;DHT22;10407;53.238;10.448;2023-07-20T13:02:43;23.10;37.60
20498;DHT22;10407;53.238;10.448;2023-07-20T13:05:10;23.20;37.80
20498;DHT22;10407;53.238;10.448;2023-07-20T13:07:39;23.50;38.30
20498;DHT22;10407;53.238;10.448;2023-07-20T13:10:07;23.70;38.70
20498;DHT22;10407;53.238;10.448;2023-07-20T13:12:36;24.20;38.90
20498;DHT22;10407;53.238;10.448;2023-07-20T13:15:07;23.60;40.00
20498;DHT22;10407;53.238;10.448;2023-07-20T13:17:36;23.20;41.50
20498;DHT22;10407;53.238;10.448;2023-07-20T13:20:06;22.70;42.20
20498;DHT22;10407;53.238;10.448;2023-07-20T13:22:40;23.00;42.00
20498;DHT22;10407;53.238;10.448;2023-07-20T13:25:08;23.40;43.10
20498;DHT22;10407;53.238;10.448;2023-07-20T13:27:36;23.50;43.00
20498;DHT22;10407;53.238;10.448;2023-07-20T13:30:05;22.70;45.30
20498;DHT22;10407;53.238;10.448;2023-07-20T13:32:37;22.20;49.70
20498;DHT22;10407;53.238;10.448;2023-07-20T13:35:05;22.20;51.00
20498;DHT22;10407;53.238;10.448;2023-07-20T13:37:33;22.20;53.50
20498;DHT22;10407;53.238;10.448;2023-07-20T13:40:01;22.20;51.70
20498;DHT22;10407;53.238;10.448;2023-07-20T13:42:30;22.30;52.60
20498;DHT22;10407;53.238;10.448;2023-07-20T13:44:58;22.20;56.20
20498;DHT22;10407;53.238;10.448;2023-07-20T13:47:26;21.90;61.30
20498;DHT22;10407;53.238;10.448;2023-07-20T13:49:54;22.00;65.20
20498;DHT22;10407;53.238;10.448;2023-07-20T13:52:22;21.90;60.90
20498;DHT22;10407;53.238;10.448;2023-07-20T13:54:50;21.80;57.70
20498;DHT22;10407;53.238;10.448;2023-07-20T13:57:17;21.90;58.80
20498;DHT22;10407;53.238;10.448;2023-07-20T13:59:45;21.80;58.10
20498;DHT22;10407;53.238;10.448;2023-07-20T14:02:14;22.00;55.80
20498;DHT22;10407;53.238;10.448;2023-07-20T14:04:42;22.10;55.00
20498;DHT22;10407;53.238;10.448;2023-07-20T14:07:09;22.20;54.90
20498;DHT22;10407;53.238;10.448;2023-07-20T14:09:37;22.20;53.90
20498;DHT22;10407;53.238;10.448;2023-07-20T14:12:06;22.30;53.50
20498;DHT22;10407;53.238;10.448;2023-07-20T14:14:34;22.50;52.60
20498;DHT22;10407;53.238;10.448;2023-07-20T14:17:03;22.40;53.70
20498;DHT22;10407;53.238;10.448;2023-07-20T14:19:30;21.90;53.90
20498;DHT22;10407;53.238;10.448;2023-07-20T14:21:58;21.60;52.80
20498;DHT22;10407;53.238;10.448;2023-07-20T14:24:26;21.60;57.70
20498;DHT22;10407;53.238;10.448;2023-07-20T14:26:54;21.30;63.80
20498;DHT22;10407;53.238;10.448;2023-07-20T14:29:21;21.10;69.10
20498;DHT22;10407;53.238;10.448;2023-07-20T14:31:49;21.00;69.20
20498;DHT22;10407;53.238;10.448;2023-07-20T14:34:18;20.90;74.20
20498;DHT22;10407;53.238;10.448;2023-07-20T14:36:46;21.20;80.50
20498;DHT22;10407;53.238;10.448;2023-07-20T14:39:13;21.20;87.90
20498;DHT22;10407;53.238;10.448;2023-07-20T14:41:41;20.80;93.30
20498;DHT22;10407;53.238;10.448;2023-07-20T14:44:08;21.00;95.70
20498;DHT22;10407;53.238;10.448;2023-07-20T14:46:36;20.80;98.00
20498;DHT22;10407;53.238;10.448;2023-07-20T14:49:04;20.20;99.90
20498;DHT22;10407;53.238;10.448;2023-07-20T14:51:31;19.90;99.90
20498;DHT22;10407;53.238;10.448;2023-07-20T14:53:59;20.50;99.90
20498;DHT22;10407;53.238;10.448;2023-07-20T14:56:27;20.60;99.90
20498;DHT22;10407;53.238;10.448;2023-07-20T14:58:55;20.40;99.90
20498;DHT22;10407;53.238;10.448;2023-07-20T15:01:24;20.50;99.90
20498;DHT22;10407;53.238;10.448;2023-07-20T15:03:52;20.60;99.90
20498;DHT22;10407;53.238;10.448;2023-07-20T15:06:20;20.50;99.90
20498;DHT22;10407;53.238;10.448;2023-07-20T15:08:47;20.60;99.90
20498;DHT22;10407;53.238;10.448;2023-07-20T15:11:15;20.40;99.90
20498;DHT22;10407;53.238;10.448;2023-07-20T15:13:42;20.40;99.90
20498;DHT22;10407;53.238;10.448;2023-07-20T15:16:10;20.60;99.90
20498;DHT22;10407;53.238;10.448;2023-07-20T15:18:37;20.60;99.90
20498;DHT22;10407;53.238;10.448;2023-07-20T15:21:05;20.80;99.90
20498;DHT22;10407;53.238;10.448;2023-07-20T15:23:32;20.30;99.90
20498;DHT22;10407;53.238;10.448;2023-07-20T15:26:00;20.10;99.90
20498;DHT22;10407;53.238;10.448;2023-07-20T15:28:27;20.30;99.90
20498;DHT22;10407;53.238;10.448;2023-07-20T15:31:02;20.40;99.90
20498;DHT22;10407;53.238;10.448;2023-07-20T15:33:29;20.80;99.90
20498;DHT22;10407;53.238;10.448;2023-07-20T15:35:57;20.50;99.90
20498;DHT22;10407;53.238;10.448;2023-07-20T15:38:24;20.80;99.90
20498;DHT22;10407;53.238;10.448;2023-07-20T15:40:52;20.90;99.90
20498;DHT22;10407;53.238;10.448;2023-07-20T15:43:21;21.00;99.90
20498;DHT22;10407;53.238;10.448;2023-07-20T15:45:49;21.00;99.90
20498;DHT22;10407;53.238;10.448;2023-07-20T15:48:17;20.50;99.90